»·PEaware :: QXE2079 KALW-KSEA

QXE2079 :: KALW-KSEA

FLIGHT INFORMATION

Flight Status: Arrived
Operator:
Horizon Air
More flights by this operator :: More flights under this callsign
Pilot: Henderson P. (1210)
Aircraft: DEHAVILLAND DASH 8 400
(DH8D)
More flights by this aircraft type
Origin: KALW Walla Walla Regl
United States
Destination: KSEA Seattle-Tacoma Intl
United States
More flights between these airports :: More routes between these airports
Route: ALW PSC V204 YKM V4 CHINS CHINS3
File this flight plan on PilotEdge
Remarks:
Altitude:
(Current/Filed)
22,000ft
Speed:
(Current/Filed)
316kts
Departed: 24-Oct-18 10:55 AM
Arrived: 24-Oct-18 11:45 AM
Distance/Time
Traveled:
184nm/0:49
Distance/Time
To Go:
Arrived

Flight Plot

Page will automatically refresh every two minutes.

Flight plan parsing failed; only flown route is shown


Map Options




Map Legend


Flown Route
Filed Route
Departure Airport
Arrival Airport
Navaid (VOR, NDB)
Fix

Horizontal Profiles

Position Reports

Time Latitude Longitude Heading Altitude Ground
Speed
24-Oct-18 10:15 46.088058 -118.285195 127 1198ft 0kts
24-Oct-18 10:16 46.088058 -118.285195 127 1198ft 0kts
24-Oct-18 10:17 46.088058 -118.285195 127 1198ft 0kts
24-Oct-18 10:18 46.088058 -118.285195 127 1198ft 0kts
24-Oct-18 10:19 46.088058 -118.285195 127 1198ft 0kts
24-Oct-18 10:20 46.088058 -118.285195 127 1198ft 0kts
24-Oct-18 10:21 46.088058 -118.285195 127 1198ft 0kts
24-Oct-18 10:22 46.088058 -118.285195 127 1198ft 0kts
24-Oct-18 10:23 46.088058 -118.285195 127 1198ft 0kts
24-Oct-18 10:24 46.088058 -118.285195 127 1198ft 0kts
24-Oct-18 10:25 46.088058 -118.285195 127 1198ft 0kts
24-Oct-18 10:26 46.088058 -118.285195 127 1198ft 0kts
24-Oct-18 10:27 46.088058 -118.285195 127 1198ft 0kts
24-Oct-18 10:28 46.088058 -118.285195 127 1198ft 0kts
24-Oct-18 10:29 46.088058 -118.285195 127 1198ft 0kts
24-Oct-18 10:30 46.088058 -118.285195 127 1198ft 0kts
24-Oct-18 10:31 46.088058 -118.285195 127 1198ft 0kts
24-Oct-18 10:32 46.088058 -118.285195 127 1198ft 0kts
24-Oct-18 10:33 46.088058 -118.285195 127 1198ft 0kts
24-Oct-18 10:34 46.088058 -118.285195 127 1198ft 0kts
24-Oct-18 10:35 46.088058 -118.285195 127 1198ft 0kts
24-Oct-18 10:36 46.088058 -118.285195 127 1198ft 0kts
24-Oct-18 10:37 46.088058 -118.285195 127 1198ft 0kts
24-Oct-18 10:38 46.088058 -118.285195 127 1198ft 0kts
24-Oct-18 10:39 46.088058 -118.285195 127 1198ft 0kts
24-Oct-18 10:40 46.088058 -118.285195 127 1198ft 0kts
24-Oct-18 10:41 46.088058 -118.285195 127 1198ft 0kts
24-Oct-18 10:42 46.088058 -118.285195 127 1198ft 0kts
24-Oct-18 10:43 46.088058 -118.285195 127 1198ft 0kts
24-Oct-18 10:44 46.088058 -118.285195 127 1198ft 0kts
24-Oct-18 10:45 46.088058 -118.285195 127 1198ft 0kts
24-Oct-18 10:46 46.088058 -118.285195 127 1198ft 0kts
24-Oct-18 10:47 46.088058 -118.285195 127 1198ft 0kts
24-Oct-18 10:48 46.088058 -118.285195 127 1198ft 0kts
24-Oct-18 10:49 46.088058 -118.285195 127 1198ft 0kts
24-Oct-18 10:50 46.088058 -118.285195 127 1198ft 0kts
24-Oct-18 10:51 46.087974 -118.285089 156 1198ft 3kts
24-Oct-18 10:52 46.089838 -118.284366 35 1198ft 12kts
24-Oct-18 10:53 46.093859 -118.280130 36 1198ft 22kts
24-Oct-18 10:54 46.097958 -118.276167 0 1198ft 11kts
24-Oct-18 10:55 46.098447 -118.276166 359 1198ft 0kts
24-Oct-18 10:56 46.098765 -118.277536 217 1198ft 14kts
24-Oct-18 10:57 46.072593 -118.304818 213 2623ft 144kts
24-Oct-18 10:58 46.062653 -118.360561 309 4651ft 211kts
24-Oct-18 10:59 46.109700 -118.422065 299 7031ft 239kts
24-Oct-18 11:00 46.136612 -118.510895 286 9726ft 246kts
24-Oct-18 11:01 46.157663 -118.604220 284 11681ft 247kts
24-Oct-18 11:02 46.178369 -118.699654 284 13245ft 250kts
24-Oct-18 11:03 46.199720 -118.796354 284 14629ft 254kts
24-Oct-18 11:04 46.220849 -118.892095 284 15839ft 257kts
24-Oct-18 11:05 46.242401 -118.990243 285 16906ft 261kts
24-Oct-18 11:06 46.264262 -119.089972 285 17899ft 264kts
24-Oct-18 11:07 46.286780 -119.190078 286 18892ft 263kts
24-Oct-18 11:08 46.309520 -119.289430 286 19885ft 260kts
24-Oct-18 11:09 46.331857 -119.387946 286 20883ft 255kts
24-Oct-18 11:10 46.353882 -119.485487 285 21886ft 250kts
24-Oct-18 11:11 46.376447 -119.586084 286 22106ft 275kts
24-Oct-18 11:12 46.401118 -119.696561 286 22110ft 296kts
24-Oct-18 11:13 46.427004 -119.812913 286 22107ft 308kts
24-Oct-18 11:14 46.454105 -119.933168 286 22104ft 314kts
24-Oct-18 11:15 46.481975 -120.054313 286 22103ft 317kts
24-Oct-18 11:16 46.509610 -120.175618 286 22102ft 318kts
24-Oct-18 11:17 46.537000 -120.296773 286 22101ft 319kts
24-Oct-18 11:18 46.564416 -120.418533 286 22100ft 319kts
24-Oct-18 11:19 46.610563 -120.529273 302 22100ft 323kts
24-Oct-18 11:20 46.662025 -120.636344 301 22099ft 322kts
24-Oct-18 11:21 46.713083 -120.744104 301 22098ft 321kts
24-Oct-18 11:22 46.764241 -120.852021 301 22096ft 321kts
24-Oct-18 11:23 46.814952 -120.959439 301 22095ft 321kts
24-Oct-18 11:24 46.865703 -121.067291 301 22096ft 321kts
24-Oct-18 11:25 46.915085 -121.172810 301 20535ft 306kts
24-Oct-18 11:26 46.962391 -121.274372 301 17599ft 302kts
24-Oct-18 11:27 47.008853 -121.374312 301 14667ft 291kts
24-Oct-18 11:28 47.053574 -121.470944 301 11321ft 283kts
24-Oct-18 11:29 47.097248 -121.566033 301 10005ft 282kts
24-Oct-18 11:30 47.141317 -121.661545 301 9976ft 280kts
24-Oct-18 11:31 47.184797 -121.756360 301 9977ft 282kts
24-Oct-18 11:32 47.227449 -121.849849 302 9982ft 281kts
24-Oct-18 11:33 47.266424 -121.935333 301 9987ft 281kts
24-Oct-18 11:34 47.305485 -122.021344 302 9989ft 281kts
24-Oct-18 11:35 47.347441 -122.114055 302 9442ft 278kts
24-Oct-18 11:36 47.417193 -122.146584 0 7667ft 273kts
24-Oct-18 11:37 47.487283 -122.146817 359 6116ft 253kts
24-Oct-18 11:38 47.556371 -122.147250 359 5753ft 250kts
24-Oct-18 11:39 47.618114 -122.148108 359 4367ft 235kts
24-Oct-18 11:40 47.663731 -122.173459 291 3990ft 215kts
24-Oct-18 11:41 47.652953 -122.262882 209 3991ft 212kts
24-Oct-18 11:42 47.611553 -122.293325 197 3283ft 177kts
24-Oct-18 11:43 47.558344 -122.307883 184 2299ft 155kts
24-Oct-18 11:44 47.527705 -122.309674 180 1723ft 122kts
24-Oct-18 11:45 47.493260 -122.310734 181 1007ft 120kts
24-Oct-18 11:46 47.456777 -122.311072 180 441ft 77kts
24-Oct-18 11:47 47.447750 -122.310299 148 441ft 11kts
24-Oct-18 11:48 47.446053 -122.306447 38 441ft 7kts
24-Oct-18 11:49 47.447026 -122.305397 180 441ft 8kts
24-Oct-18 11:50 47.446627 -122.304759 90 440ft 0kts
24-Oct-18 11:51 47.446627 -122.304759 90 440ft 0kts

Navigation Log

Ident Type
Flight plan parsing failed, navigation log unavailable